createdAt,value
2022-11-25T00:05:33.141Z,93962.44
2022-11-25T00:15:39.433Z,93953.53
2022-11-25T00:25:45.696Z,93976.22
2022-11-25T00:35:51.980Z,93970.53
2022-11-25T00:45:58.281Z,93964.47
2022-11-25T00:56:16.676Z,93933.41
2022-11-25T01:06:22.220Z,93936.13
2022-11-25T01:16:28.541Z,93941.69
2022-11-25T01:26:36.237Z,93909.91
2022-11-25T01:36:43.081Z,93885.38
2022-11-25T01:47:04.127Z,93860.84
2022-11-25T01:57:15.510Z,93860.84
2022-11-25T02:07:32.952Z,93864.47
2022-11-25T02:17:39.293Z,93892.06
2022-11-25T02:27:47.921Z,93884.78
2022-11-25T02:37:56.865Z,93875.59
2022-11-25T02:48:03.193Z,93873.56
2022-11-25T02:58:09.816Z,93866.94
2022-11-25T03:08:16.164Z,93852.38
2022-11-25T03:18:22.466Z,93856.66
2022-11-25T03:28:28.752Z,93853.44
2022-11-25T03:38:34.989Z,93864.87
2022-11-25T03:48:41.602Z,93843.66
2022-11-25T03:58:47.836Z,93859.84
2022-11-25T04:08:54.155Z,93836.63
2022-11-25T04:19:00.405Z,93848.19
2022-11-25T04:29:06.795Z,93822.81
2022-11-25T04:39:13.125Z,93823.09
2022-11-25T04:49:19.358Z,93822.13
2022-11-25T04:59:40.719Z,93800.31
2022-11-25T05:09:47.469Z,93805.50
2022-11-25T05:19:53.822Z,93788.97
2022-11-25T05:30:00.040Z,93790.28
2022-11-25T05:40:07.053Z,93797.63
2022-11-25T05:50:13.872Z,93784.47
2022-11-25T06:00:25.120Z,93797.31
2022-11-25T06:10:32.933Z,93787.44
2022-11-25T06:20:39.400Z,93774.97
2022-11-25T06:30:45.849Z,93797.63
2022-11-25T06:40:54.128Z,93811.94
2022-11-25T06:51:06.555Z,93815.25
2022-11-25T07:01:16.927Z,93830.25
2022-11-25T07:11:24.552Z,93837.94
2022-11-25T07:21:32.005Z,93808.47
2022-11-25T07:31:40.943Z,93857.72
2022-11-25T07:41:47.838Z,93832.53
2022-11-25T07:51:56.079Z,93798.94
2022-11-25T08:02:02.378Z,93769.47
2022-11-25T08:12:08.723Z,93734.00
2022-11-25T08:22:15.078Z,93702.34
2022-11-25T08:32:21.321Z,93613.53
2022-11-25T08:42:28.205Z,93565.09
2022-11-25T08:52:34.507Z,93560.91
2022-11-25T09:02:40.891Z,93485.78
2022-11-25T09:12:47.165Z,93431.13
2022-11-25T09:22:53.696Z,93397.53
2022-11-25T09:32:59.974Z,93279.13
2022-11-25T09:43:45.611Z,93198.06
2022-11-25T09:53:54.823Z,93165.59
2022-11-25T10:04:10.414Z,93130.72
2022-11-25T10:14:20.916Z,93155.28
2022-11-25T10:24:27.230Z,93176.22
2022-11-25T10:34:40.570Z,93187.22
2022-11-25T10:44:46.847Z,93214.03
2022-11-25T10:55:10.750Z,93172.06
2022-11-25T11:05:32.349Z,93156.63
2022-11-25T11:15:48.479Z,93154.56
2022-11-25T11:36:42.415Z,93111.03
2022-11-25T11:47:08.407Z,93143.94
2022-11-25T11:57:38.424Z,93150.16
2022-11-25T12:08:16.404Z,93141.44
2022-11-25T12:18:42.380Z,93185.78
2022-11-25T12:29:01.435Z,93137.16
2022-11-25T12:39:29.424Z,93153.19
2022-11-25T12:49:53.461Z,93185.47
2022-11-25T13:00:44.854Z,93212.16
2022-11-25T13:11:35.780Z,93185.63
2022-11-25T13:22:31.438Z,93188.72
2022-11-25T13:32:46.469Z,93210.34
2022-11-25T13:43:00.534Z,93259.53
2022-11-25T13:53:15.476Z,93246.72
2022-11-25T14:03:28.548Z,93281.88
2022-11-25T14:14:06.480Z,93333.59
2022-11-25T14:24:28.477Z,93357.25
2022-11-25T14:34:56.498Z,93400.53
2022-11-25T14:45:10.499Z,93417.03
2022-11-25T14:55:36.513Z,93451.44
2022-11-25T15:06:05.535Z,93468.09
2022-11-25T15:16:24.582Z,93467.09
2022-11-25T15:26:39.502Z,93546.25
2022-11-25T15:36:54.578Z,93566.06
2022-11-25T15:47:12.547Z,93561.53
2022-11-25T15:57:35.585Z,93611.47
2022-11-25T16:08:03.627Z,93618.22
2022-11-25T16:18:41.996Z,93609.22
2022-11-25T16:29:02.578Z,93629.13
2022-11-25T16:39:14.565Z,93622.22
2022-11-25T16:49:27.605Z,93646.84
2022-11-25T16:59:44.576Z,93689.91
2022-11-25T17:10:03.593Z,93713.06
2022-11-25T17:20:22.598Z,93772.63
2022-11-25T17:30:35.614Z,93770.25
2022-11-25T17:40:50.673Z,93716.25
2022-11-25T17:51:07.412Z,93730.56
2022-11-25T18:01:21.828Z,93731.69
2022-11-25T18:11:34.707Z,93721.37
2022-11-25T18:21:48.716Z,93765.53
2022-11-25T18:32:03.695Z,93807.28
2022-11-25T18:42:25.705Z,93814.56
2022-11-25T19:36:42.719Z,93813.19
2022-11-25T19:47:14.720Z,93749.94
2022-11-25T19:57:30.737Z,93744.59
2022-11-25T20:07:43.784Z,93733.38
2022-11-25T20:17:58.727Z,93734.47
2022-11-25T20:28:35.729Z,93825.91
2022-11-25T20:38:47.369Z,93901.25
2022-11-25T20:49:02.117Z,93985.09
2022-11-25T20:59:23.008Z,94082.38
2022-11-25T21:09:33.762Z,94112.66
2022-11-25T21:19:40.037Z,94065.03
2022-11-25T21:29:46.723Z,94090.00
2022-11-25T21:39:51.950Z,94112.56
2022-11-25T21:49:59.385Z,94102.41
2022-11-25T22:00:08.033Z,94111.41
2022-11-25T22:10:19.403Z,94138.22
2022-11-25T22:20:28.084Z,94136.81
2022-11-25T22:30:34.424Z,94144.12
2022-11-25T22:40:42.134Z,94136.28
2022-11-25T22:50:48.511Z,94136.66
2022-11-25T23:00:56.072Z,94150.16
2022-11-25T23:11:02.448Z,94204.44
2022-11-25T23:21:17.696Z,94218.22
2022-11-25T23:31:27.040Z,94264.50
2022-11-25T23:41:35.064Z,94274.66
2022-11-25T23:51:41.321Z,94263.03
